sensor_id;sensor_type;location;lat;lon;timestamp;temperature;humidity
12060;DHT22;6091;51.432;6.880;2022-12-15T00:02:45;19.60;29.30
12060;DHT22;6091;51.432;6.880;2022-12-15T00:05:31;19.60;29.30
12060;DHT22;6091;51.432;6.880;2022-12-15T00:08:17;19.60;29.30
12060;DHT22;6091;51.432;6.880;2022-12-15T00:11:02;19.60;29.30
12060;DHT22;6091;51.432;6.880;2022-12-15T00:13:49;19.60;29.30
12060;DHT22;6091;51.432;6.880;2022-12-15T00:16:35;19.50;29.30
12060;DHT22;6091;51.432;6.880;2022-12-15T00:19:21;19.50;29.30
12060;DHT22;6091;51.432;6.880;2022-12-15T00:22:06;19.50;29.30
12060;DHT22;6091;51.432;6.880;2022-12-15T00:24:52;19.50;29.30
12060;DHT22;6091;51.432;6.880;2022-12-15T00:27:37;19.50;29.30
12060;DHT22;6091;51.432;6.880;2022-12-15T00:30:23;19.50;29.30
12060;DHT22;6091;51.432;6.880;2022-12-15T00:33:15;19.50;29.30
12060;DHT22;6091;51.432;6.880;2022-12-15T00:36:00;19.40;29.30
12060;DHT22;6091;51.432;6.880;2022-12-15T00:38:46;19.50;29.30
12060;DHT22;6091;51.432;6.880;2022-12-15T00:41:15;19.40;29.30
12060;DHT22;6091;51.432;6.880;2022-12-15T00:43:44;19.50;29.40
12060;DHT22;6091;51.432;6.880;2022-12-15T00:46:12;19.40;29.30
12060;DHT22;6091;51.432;6.880;2022-12-15T00:48:58;19.40;29.40
12060;DHT22;6091;51.432;6.880;2022-12-15T00:51:26;19.40;29.30
12060;DHT22;6091;51.432;6.880;2022-12-15T00:54:12;19.40;29.30
12060;DHT22;6091;51.432;6.880;2022-12-15T00:56:58;19.40;29.30
12060;DHT22;6091;51.432;6.880;2022-12-15T00:59:43;19.40;29.30
12060;DHT22;6091;51.432;6.880;2022-12-15T01:02:29;19.40;29.30
12060;DHT22;6091;51.432;6.880;2022-12-15T01:05:15;19.40;29.40
12060;DHT22;6091;51.432;6.880;2022-12-15T01:08:00;19.30;29.30
12060;DHT22;6091;51.432;6.880;2022-12-15T01:10:49;19.30;29.30
12060;DHT22;6091;51.432;6.880;2022-12-15T01:13:34;19.30;29.30
12060;DHT22;6091;51.432;6.880;2022-12-15T01:16:20;19.50;29.40
12060;DHT22;6091;51.432;6.880;2022-12-15T01:19:07;19.30;29.30
12060;DHT22;6091;51.432;6.880;2022-12-15T01:21:53;19.30;29.30
12060;DHT22;6091;51.432;6.880;2022-12-15T01:24:20;19.30;29.30
12060;DHT22;6091;51.432;6.880;2022-12-15T01:26:47;19.20;29.80
12060;DHT22;6091;51.432;6.880;2022-12-15T01:29:14;19.30;29.30
12060;DHT22;6091;51.432;6.880;2022-12-15T01:31:41;19.30;29.40
12060;DHT22;6091;51.432;6.880;2022-12-15T01:34:09;19.20;29.30
12060;DHT22;6091;51.432;6.880;2022-12-15T01:36:36;19.20;29.30
12060;DHT22;6091;51.432;6.880;2022-12-15T01:39:03;19.20;29.80
12060;DHT22;6091;51.432;6.880;2022-12-15T01:41:30;19.20;29.30
12060;DHT22;6091;51.432;6.880;2022-12-15T01:44:18;19.20;29.30
12060;DHT22;6091;51.432;6.880;2022-12-15T01:46:48;19.30;29.50
12060;DHT22;6091;51.432;6.880;2022-12-15T01:49:27;19.20;29.40
12060;DHT22;6091;51.432;6.880;2022-12-15T01:52:00;19.20;29.40
12060;DHT22;6091;51.432;6.880;2022-12-15T01:54:56;19.20;29.40
12060;DHT22;6091;51.432;6.880;2022-12-15T01:57:30;19.20;29.40
12060;DHT22;6091;51.432;6.880;2022-12-15T02:00:00;19.20;29.40
12060;DHT22;6091;51.432;6.880;2022-12-15T02:02:31;19.20;29.40
12060;DHT22;6091;51.432;6.880;2022-12-15T02:05:07;19.10;29.40
12060;DHT22;6091;51.432;6.880;2022-12-15T02:07:35;19.10;29.30
12060;DHT22;6091;51.432;6.880;2022-12-15T02:10:04;19.10;29.30
12060;DHT22;6091;51.432;6.880;2022-12-15T02:12:48;19.20;29.40
12060;DHT22;6091;51.432;6.880;2022-12-15T02:15:47;19.20;29.50
12060;DHT22;6091;51.432;6.880;2022-12-15T02:18:49;19.10;29.40
12060;DHT22;6091;51.432;6.880;2022-12-15T02:21:46;19.10;29.50
12060;DHT22;6091;51.432;6.880;2022-12-15T02:27:29;19.10;29.40
12060;DHT22;6091;51.432;6.880;2022-12-15T02:30:21;19.10;29.40
12060;DHT22;6091;51.432;6.880;2022-12-15T02:35:58;19.10;29.50
12060;DHT22;6091;51.432;6.880;2022-12-15T02:38:32;19.10;29.50
12060;DHT22;6091;51.432;6.880;2022-12-15T02:41:02;19.00;29.30
12060;DHT22;6091;51.432;6.880;2022-12-15T02:43:35;19.00;29.40
12060;DHT22;6091;51.432;6.880;2022-12-15T03:00:22;19.00;29.40
12060;DHT22;6091;51.432;6.880;2022-12-15T03:02:52;19.00;29.50
12060;DHT22;6091;51.432;6.880;2022-12-15T03:05:22;19.00;29.40
12060;DHT22;6091;51.432;6.880;2022-12-15T03:07:52;18.90;29.40
12060;DHT22;6091;51.432;6.880;2022-12-15T03:10:22;18.90;29.40
12060;DHT22;6091;51.432;6.880;2022-12-15T03:12:51;18.90;29.40
12060;DHT22;6091;51.432;6.880;2022-12-15T03:15:20;18.90;29.40
12060;DHT22;6091;51.432;6.880;2022-12-15T03:17:47;18.90;29.40
12060;DHT22;6091;51.432;6.880;2022-12-15T03:20:15;18.90;29.40
12060;DHT22;6091;51.432;6.880;2022-12-15T03:22:42;18.90;29.40
12060;DHT22;6091;51.432;6.880;2022-12-15T03:25:10;18.90;29.40
12060;DHT22;6091;51.432;6.880;2022-12-15T03:27:37;18.90;29.40
12060;DHT22;6091;51.432;6.880;2022-12-15T03:30:05;18.90;29.40
12060;DHT22;6091;51.432;6.880;2022-12-15T03:32:32;18.90;29.50
12060;DHT22;6091;51.432;6.880;2022-12-15T03:34:59;18.80;29.30
12060;DHT22;6091;51.432;6.880;2022-12-15T03:37:27;18.80;29.30
12060;DHT22;6091;51.432;6.880;2022-12-15T03:39:55;18.80;29.40
12060;DHT22;6091;51.432;6.880;2022-12-15T03:42:22;18.80;29.40
12060;DHT22;6091;51.432;6.880;2022-12-15T03:45:08;18.80;29.40
12060;DHT22;6091;51.432;6.880;2022-12-15T03:47:38;19.10;29.60
12060;DHT22;6091;51.432;6.880;2022-12-15T03:50:07;18.80;29.40
12060;DHT22;6091;51.432;6.880;2022-12-15T03:52:35;18.80;29.40
12060;DHT22;6091;51.432;6.880;2022-12-15T03:55:03;18.80;29.40
12060;DHT22;6091;51.432;6.880;2022-12-15T03:57:31;18.70;29.40
12060;DHT22;6091;51.432;6.880;2022-12-15T04:00:01;18.80;29.40
12060;DHT22;6091;51.432;6.880;2022-12-15T04:02:28;18.80;29.40
12060;DHT22;6091;51.432;6.880;2022-12-15T04:04:56;18.80;29.40
12060;DHT22;6091;51.432;6.880;2022-12-15T04:07:23;18.80;29.40
12060;DHT22;6091;51.432;6.880;2022-12-15T04:09:50;18.70;29.80
12060;DHT22;6091;51.432;6.880;2022-12-15T04:12:17;19.50;29.90
12060;DHT22;6091;51.432;6.880;2022-12-15T04:14:44;18.70;29.40
12060;DHT22;6091;51.432;6.880;2022-12-15T04:17:15;18.70;29.40
12060;DHT22;6091;51.432;6.880;2022-12-15T04:19:42;18.70;29.30
12060;DHT22;6091;51.432;6.880;2022-12-15T04:22:28;18.70;29.30
12060;DHT22;6091;51.432;6.880;2022-12-15T04:24:55;18.70;29.40
12060;DHT22;6091;51.432;6.880;2022-12-15T04:27:40;18.60;29.30
12060;DHT22;6091;51.432;6.880;2022-12-15T04:30:29;18.70;29.40
12060;DHT22;6091;51.432;6.880;2022-12-15T04:33:15;18.70;29.50
12060;DHT22;6091;51.432;6.880;2022-12-15T04:36:02;18.60;29.40
12060;DHT22;6091;51.432;6.880;2022-12-15T04:38:48;18.60;29.40
12060;DHT22;6091;51.432;6.880;2022-12-15T04:41:34;18.70;29.70
12060;DHT22;6091;51.432;6.880;2022-12-15T04:44:21;18.60;29.40
12060;DHT22;6091;51.432;6.880;2022-12-15T04:47:07;18.70;29.50
12060;DHT22;6091;51.432;6.880;2022-12-15T04:49:52;18.60;29.40
12060;DHT22;6091;51.432;6.880;2022-12-15T04:52:38;18.60;29.40
12060;DHT22;6091;51.432;6.880;2022-12-15T04:55:24;18.60;29.40
12060;DHT22;6091;51.432;6.880;2022-12-15T04:58:10;18.60;29.40
12060;DHT22;6091;51.432;6.880;2022-12-15T05:00:56;18.60;29.40
12060;DHT22;6091;51.432;6.880;2022-12-15T05:03:43;18.60;29.40
12060;DHT22;6091;51.432;6.880;2022-12-15T05:06:28;18.60;29.40
12060;DHT22;6091;51.432;6.880;2022-12-15T05:09:14;18.60;29.50
12060;DHT22;6091;51.432;6.880;2022-12-15T05:11:59;18.60;29.50
12060;DHT22;6091;51.432;6.880;2022-12-15T05:14:45;18.60;29.40
12060;DHT22;6091;51.432;6.880;2022-12-15T05:17:30;18.50;29.40
12060;DHT22;6091;51.432;6.880;2022-12-15T05:20:17;18.60;29.40
12060;DHT22;6091;51.432;6.880;2022-12-15T05:23:02;18.60;29.40
12060;DHT22;6091;51.432;6.880;2022-12-15T05:25:48;18.60;29.40
12060;DHT22;6091;51.432;6.880;2022-12-15T05:28:33;18.50;29.40
12060;DHT22;6091;51.432;6.880;2022-12-15T05:31:19;18.50;29.40
12060;DHT22;6091;51.432;6.880;2022-12-15T05:34:05;18.50;29.40
12060;DHT22;6091;51.432;6.880;2022-12-15T05:36:33;18.30;29.30
12060;DHT22;6091;51.432;6.880;2022-12-15T05:39:00;18.50;29.40
12060;DHT22;6091;51.432;6.880;2022-12-15T05:41:27;18.50;29.90
12060;DHT22;6091;51.432;6.880;2022-12-15T05:43:54;18.50;29.40
12060;DHT22;6091;51.432;6.880;2022-12-15T05:46:21;18.50;29.40
12060;DHT22;6091;51.432;6.880;2022-12-15T05:48:51;18.50;29.40
12060;DHT22;6091;51.432;6.880;2022-12-15T05:51:18;18.40;29.40
12060;DHT22;6091;51.432;6.880;2022-12-15T05:53:45;18.50;29.50
12060;DHT22;6091;51.432;6.880;2022-12-15T05:56:13;18.50;29.50
12060;DHT22;6091;51.432;6.880;2022-12-15T05:58:41;18.50;29.50
12060;DHT22;6091;51.432;6.880;2022-12-15T06:01:16;18.50;29.40
12060;DHT22;6091;51.432;6.880;2022-12-15T06:03:44;18.50;29.50
12060;DHT22;6091;51.432;6.880;2022-12-15T06:06:11;18.50;29.40
12060;DHT22;6091;51.432;6.880;2022-12-15T06:08:40;18.50;29.40
12060;DHT22;6091;51.432;6.880;2022-12-15T06:11:13;18.50;29.50
12060;DHT22;6091;51.432;6.880;2022-12-15T06:13:42;18.50;29.50
12060;DHT22;6091;51.432;6.880;2022-12-15T06:16:12;18.50;29.50
12060;DHT22;6091;51.432;6.880;2022-12-15T06:18:49;18.50;29.50
12060;DHT22;6091;51.432;6.880;2022-12-15T06:21:34;18.50;29.50
12060;DHT22;6091;51.432;6.880;2022-12-15T06:24:04;18.50;29.50
12060;DHT22;6091;51.432;6.880;2022-12-15T06:26:37;18.50;29.50
12060;DHT22;6091;51.432;6.880;2022-12-15T06:29:07;18.50;29.50
12060;DHT22;6091;51.432;6.880;2022-12-15T06:31:37;18.40;29.50
12060;DHT22;6091;51.432;6.880;2022-12-15T06:34:07;18.40;29.50
12060;DHT22;6091;51.432;6.880;2022-12-15T06:36:36;18.40;29.50
12060;DHT22;6091;51.432;6.880;2022-12-15T06:39:11;18.40;29.40
12060;DHT22;6091;51.432;6.880;2022-12-15T06:41:48;18.40;29.50
12060;DHT22;6091;51.432;6.880;2022-12-15T06:44:15;18.40;29.40
12060;DHT22;6091;51.432;6.880;2022-12-15T06:46:42;18.40;29.60
12060;DHT22;6091;51.432;6.880;2022-12-15T06:49:11;18.40;29.50
12060;DHT22;6091;51.432;6.880;2022-12-15T06:51:39;18.40;29.60
12060;DHT22;6091;51.432;6.880;2022-12-15T06:54:08;18.50;29.70
12060;DHT22;6091;51.432;6.880;2022-12-15T06:56:37;18.50;29.80
12060;DHT22;6091;51.432;6.880;2022-12-15T06:59:06;18.60;29.90
12060;DHT22;6091;51.432;6.880;2022-12-15T07:01:34;18.60;29.90
12060;DHT22;6091;51.432;6.880;2022-12-15T07:04:01;18.70;30.00
12060;DHT22;6091;51.432;6.880;2022-12-15T07:06:35;18.80;30.00
12060;DHT22;6091;51.432;6.880;2022-12-15T07:09:05;18.90;30.20
12060;DHT22;6091;51.432;6.880;2022-12-15T07:11:34;18.90;30.20
12060;DHT22;6091;51.432;6.880;2022-12-15T07:14:03;18.90;30.30
12060;DHT22;6091;51.432;6.880;2022-12-15T07:16:31;19.10;30.50
12060;DHT22;6091;51.432;6.880;2022-12-15T07:18:58;19.30;30.60
12060;DHT22;6091;51.432;6.880;2022-12-15T07:21:25;19.40;30.50
12060;DHT22;6091;51.432;6.880;2022-12-15T07:23:52;19.50;30.90
12060;DHT22;6091;51.432;6.880;2022-12-15T07:26:23;19.60;30.90
12060;DHT22;6091;51.432;6.880;2022-12-15T07:28:50;19.70;30.80
12060;DHT22;6091;51.432;6.880;2022-12-15T07:31:20;19.80;30.80
12060;DHT22;6091;51.432;6.880;2022-12-15T07:33:48;20.00;30.70
12060;DHT22;6091;51.432;6.880;2022-12-15T07:36:18;20.10;30.60
12060;DHT22;6091;51.432;6.880;2022-12-15T07:38:46;20.20;30.60
12060;DHT22;6091;51.432;6.880;2022-12-15T07:41:17;20.30;30.60
12060;DHT22;6091;51.432;6.880;2022-12-15T07:43:46;20.40;30.60
12060;DHT22;6091;51.432;6.880;2022-12-15T07:46:14;20.40;30.50
12060;DHT22;6091;51.432;6.880;2022-12-15T07:48:42;20.40;30.50
12060;DHT22;6091;51.432;6.880;2022-12-15T07:51:16;20.60;30.50
12060;DHT22;6091;51.432;6.880;2022-12-15T07:53:47;20.70;30.50
12060;DHT22;6091;51.432;6.880;2022-12-15T07:56:16;20.80;30.40
12060;DHT22;6091;51.432;6.880;2022-12-15T07:58:44;20.90;30.30
12060;DHT22;6091;51.432;6.880;2022-12-15T08:01:13;21.00;30.30
12060;DHT22;6091;51.432;6.880;2022-12-15T08:03:41;21.10;30.20
12060;DHT22;6091;51.432;6.880;2022-12-15T08:06:13;21.10;30.20
12060;DHT22;6091;51.432;6.880;2022-12-15T08:08:42;21.20;30.10
12060;DHT22;6091;51.432;6.880;2022-12-15T08:11:17;21.20;30.10
12060;DHT22;6091;51.432;6.880;2022-12-15T08:13:46;21.30;30.00
12060;DHT22;6091;51.432;6.880;2022-12-15T08:16:34;21.30;30.00
12060;DHT22;6091;51.432;6.880;2022-12-15T08:19:03;21.30;30.00
12060;DHT22;6091;51.432;6.880;2022-12-15T08:21:32;21.30;30.00
12060;DHT22;6091;51.432;6.880;2022-12-15T08:23:59;21.40;30.00
12060;DHT22;6091;51.432;6.880;2022-12-15T08:26:26;21.40;30.00
12060;DHT22;6091;51.432;6.880;2022-12-15T08:28:56;21.40;29.90
12060;DHT22;6091;51.432;6.880;2022-12-15T08:31:51;21.40;30.00
12060;DHT22;6091;51.432;6.880;2022-12-15T08:34:19;21.50;30.00
12060;DHT22;6091;51.432;6.880;2022-12-15T08:36:46;21.50;30.00
12060;DHT22;6091;51.432;6.880;2022-12-15T08:39:13;21.50;30.00
12060;DHT22;6091;51.432;6.880;2022-12-15T08:41:40;21.60;30.00
12060;DHT22;6091;51.432;6.880;2022-12-15T08:44:07;21.60;30.00
12060;DHT22;6091;51.432;6.880;2022-12-15T08:46:35;21.70;30.00
12060;DHT22;6091;51.432;6.880;2022-12-15T08:49:09;21.70;30.00
12060;DHT22;6091;51.432;6.880;2022-12-15T08:51:39;21.60;29.70
12060;DHT22;6091;51.432;6.880;2022-12-15T08:54:11;21.80;29.90
12060;DHT22;6091;51.432;6.880;2022-12-15T08:56:38;21.60;29.90
12060;DHT22;6091;51.432;6.880;2022-12-15T08:59:06;21.80;29.90
12060;DHT22;6091;51.432;6.880;2022-12-15T09:01:33;21.70;30.30
12060;DHT22;6091;51.432;6.880;2022-12-15T09:04:07;21.60;29.90
12060;DHT22;6091;51.432;6.880;2022-12-15T09:06:35;21.80;29.90
12060;DHT22;6091;51.432;6.880;2022-12-15T09:09:07;21.80;30.10
12060;DHT22;6091;51.432;6.880;2022-12-15T09:11:37;21.90;30.00
12060;DHT22;6091;51.432;6.880;2022-12-15T09:14:05;21.90;30.00
12060;DHT22;6091;51.432;6.880;2022-12-15T09:16:33;22.10;30.10
12060;DHT22;6091;51.432;6.880;2022-12-15T09:19:05;22.10;29.80
12060;DHT22;6091;51.432;6.880;2022-12-15T09:21:33;22.20;30.10
12060;DHT22;6091;51.432;6.880;2022-12-15T09:24:02;22.20;30.00
12060;DHT22;6091;51.432;6.880;2022-12-15T09:26:31;22.20;30.10
12060;DHT22;6091;51.432;6.880;2022-12-15T09:29:00;22.30;30.10
12060;DHT22;6091;51.432;6.880;2022-12-15T09:31:36;22.30;30.00
12060;DHT22;6091;51.432;6.880;2022-12-15T09:34:12;22.30;30.00
12060;DHT22;6091;51.432;6.880;2022-12-15T09:36:41;22.40;30.00
12060;DHT22;6091;51.432;6.880;2022-12-15T09:39:09;22.40;30.00
12060;DHT22;6091;51.432;6.880;2022-12-15T09:41:38;22.40;30.00
12060;DHT22;6091;51.432;6.880;2022-12-15T09:44:13;22.40;30.00
12060;DHT22;6091;51.432;6.880;2022-12-15T09:52:17;22.50;30.00
12060;DHT22;6091;51.432;6.880;2022-12-15T09:54:48;22.50;30.00
12060;DHT22;6091;51.432;6.880;2022-12-15T09:57:35;22.50;30.00
12060;DHT22;6091;51.432;6.880;2022-12-15T10:00:13;22.50;29.90
12060;DHT22;6091;51.432;6.880;2022-12-15T10:18:30;22.70;29.90
12060;DHT22;6091;51.432;6.880;2022-12-15T10:21:01;22.70;29.90
12060;DHT22;6091;51.432;6.880;2022-12-15T10:23:28;22.70;29.90
12060;DHT22;6091;51.432;6.880;2022-12-15T10:31:49;22.70;30.00
12060;DHT22;6091;51.432;6.880;2022-12-15T10:34:28;22.80;30.00
12060;DHT22;6091;51.432;6.880;2022-12-15T10:36:59;22.90;30.00
12060;DHT22;6091;51.432;6.880;2022-12-15T10:39:41;22.90;29.90
12060;DHT22;6091;51.432;6.880;2022-12-15T10:44:45;23.10;30.00
12060;DHT22;6091;51.432;6.880;2022-12-15T10:49:54;23.20;30.00
12060;DHT22;6091;51.432;6.880;2022-12-15T10:52:32;23.20;29.80
12060;DHT22;6091;51.432;6.880;2022-12-15T10:55:06;23.20;29.90
12060;DHT22;6091;51.432;6.880;2022-12-15T10:57:59;23.30;30.00
12060;DHT22;6091;51.432;6.880;2022-12-15T11:00:30;23.40;30.00
12060;DHT22;6091;51.432;6.880;2022-12-15T11:02:58;23.40;29.90
12060;DHT22;6091;51.432;6.880;2022-12-15T11:05:26;23.60;30.00
12060;DHT22;6091;51.432;6.880;2022-12-15T11:08:13;23.60;30.00
12060;DHT22;6091;51.432;6.880;2022-12-15T11:10:55;23.70;29.80
12060;DHT22;6091;51.432;6.880;2022-12-15T11:14:03;23.70;29.90
12060;DHT22;6091;51.432;6.880;2022-12-15T11:16:32;23.80;29.80
12060;DHT22;6091;51.432;6.880;2022-12-15T11:19:13;23.90;30.00
12060;DHT22;6091;51.432;6.880;2022-12-15T11:21:52;23.90;29.80
12060;DHT22;6091;51.432;6.880;2022-12-15T11:24:40;24.00;29.80
12060;DHT22;6091;51.432;6.880;2022-12-15T11:27:33;24.00;29.70
12060;DHT22;6091;51.432;6.880;2022-12-15T11:30:12;24.00;29.50
12060;DHT22;6091;51.432;6.880;2022-12-15T11:32:47;24.00;29.50
12060;DHT22;6091;51.432;6.880;2022-12-15T11:35:26;24.00;29.40
12060;DHT22;6091;51.432;6.880;2022-12-15T11:47:47;24.00;29.40
12060;DHT22;6091;51.432;6.880;2022-12-15T11:53:12;24.00;29.50
12060;DHT22;6091;51.432;6.880;2022-12-15T12:04:19;24.10;29.40
12060;DHT22;6091;51.432;6.880;2022-12-15T12:07:10;24.10;29.30
12060;DHT22;6091;51.432;6.880;2022-12-15T12:19:05;24.30;29.10
12060;DHT22;6091;51.432;6.880;2022-12-15T12:21:47;24.30;29.20
12060;DHT22;6091;51.432;6.880;2022-12-15T12:24:29;24.30;29.20
12060;DHT22;6091;51.432;6.880;2022-12-15T12:30:13;24.20;29.00
12060;DHT22;6091;51.432;6.880;2022-12-15T12:35:51;24.20;29.20
12060;DHT22;6091;51.432;6.880;2022-12-15T12:38:25;24.20;29.10
12060;DHT22;6091;51.432;6.880;2022-12-15T12:41:09;24.10;29.60
12060;DHT22;6091;51.432;6.880;2022-12-15T12:43:54;24.10;29.00
12060;DHT22;6091;51.432;6.880;2022-12-15T12:46:38;24.10;29.00
12060;DHT22;6091;51.432;6.880;2022-12-15T12:49:29;24.10;29.00
12060;DHT22;6091;51.432;6.880;2022-12-15T12:55:02;24.10;29.10
12060;DHT22;6091;51.432;6.880;2022-12-15T12:57:41;24.00;29.10
12060;DHT22;6091;51.432;6.880;2022-12-15T13:05:27;24.00;29.20
12060;DHT22;6091;51.432;6.880;2022-12-15T13:10:34;24.00;29.10
12060;DHT22;6091;51.432;6.880;2022-12-15T13:13:42;24.00;29.10
12060;DHT22;6091;51.432;6.880;2022-12-15T13:16:25;24.00;29.00
12060;DHT22;6091;51.432;6.880;2022-12-15T13:19:07;24.00;29.00
12060;DHT22;6091;51.432;6.880;2022-12-15T13:24:33;24.00;29.00
12060;DHT22;6091;51.432;6.880;2022-12-15T13:27:16;24.00;29.00
12060;DHT22;6091;51.432;6.880;2022-12-15T13:30:00;24.00;29.10
12060;DHT22;6091;51.432;6.880;2022-12-15T13:32:42;24.00;29.00
12060;DHT22;6091;51.432;6.880;2022-12-15T13:37:53;24.00;29.10
12060;DHT22;6091;51.432;6.880;2022-12-15T13:43:28;23.90;29.00
12060;DHT22;6091;51.432;6.880;2022-12-15T13:46:15;24.00;28.90
12060;DHT22;6091;51.432;6.880;2022-12-15T13:48:52;24.00;28.90
12060;DHT22;6091;51.432;6.880;2022-12-15T13:51:34;23.90;28.90
12060;DHT22;6091;51.432;6.880;2022-12-15T13:56:48;23.90;28.90
12060;DHT22;6091;51.432;6.880;2022-12-15T14:02:35;23.90;28.60
12060;DHT22;6091;51.432;6.880;2022-12-15T14:05:20;23.90;28.70
12060;DHT22;6091;51.432;6.880;2022-12-15T14:07:59;23.90;28.60
12060;DHT22;6091;51.432;6.880;2022-12-15T14:10:42;23.80;28.70
12060;DHT22;6091;51.432;6.880;2022-12-15T14:15:59;23.80;28.80
12060;DHT22;6091;51.432;6.880;2022-12-15T14:18:35;23.80;28.80
12060;DHT22;6091;51.432;6.880;2022-12-15T14:21:06;23.80;28.90
12060;DHT22;6091;51.432;6.880;2022-12-15T14:23:44;23.80;28.90
12060;DHT22;6091;51.432;6.880;2022-12-15T14:26:31;23.70;28.90
12060;DHT22;6091;51.432;6.880;2022-12-15T14:29:03;23.70;28.90
12060;DHT22;6091;51.432;6.880;2022-12-15T14:31:32;23.70;28.80
12060;DHT22;6091;51.432;6.880;2022-12-15T14:34:10;23.70;28.90
12060;DHT22;6091;51.432;6.880;2022-12-15T14:36:43;23.60;29.30
12060;DHT22;6091;51.432;6.880;2022-12-15T14:39:42;23.60;28.90
12060;DHT22;6091;51.432;6.880;2022-12-15T14:42:36;23.70;28.90
12060;DHT22;6091;51.432;6.880;2022-12-15T14:45:04;23.70;28.90
12060;DHT22;6091;51.432;6.880;2022-12-15T14:47:34;23.60;28.90
12060;DHT22;6091;51.432;6.880;2022-12-15T14:50:02;23.70;29.00
12060;DHT22;6091;51.432;6.880;2022-12-15T14:52:39;23.70;29.00
12060;DHT22;6091;51.432;6.880;2022-12-15T14:55:24;23.70;29.00
12060;DHT22;6091;51.432;6.880;2022-12-15T14:57:54;23.70;28.90
12060;DHT22;6091;51.432;6.880;2022-12-15T15:00:23;23.70;28.90
12060;DHT22;6091;51.432;6.880;2022-12-15T15:03:16;23.70;28.90
12060;DHT22;6091;51.432;6.880;2022-12-15T15:08:49;23.60;29.00
12060;DHT22;6091;51.432;6.880;2022-12-15T15:11:38;23.60;28.80
12060;DHT22;6091;51.432;6.880;2022-12-15T15:14:12;23.60;28.60
12060;DHT22;6091;51.432;6.880;2022-12-15T15:16:43;23.60;28.70
12060;DHT22;6091;51.432;6.880;2022-12-15T15:19:18;23.60;28.70
12060;DHT22;6091;51.432;6.880;2022-12-15T15:21:48;23.60;28.70
12060;DHT22;6091;51.432;6.880;2022-12-15T15:26:43;23.60;28.70
12060;DHT22;6091;51.432;6.880;2022-12-15T15:29:46;23.60;28.70
12060;DHT22;6091;51.432;6.880;2022-12-15T15:32:17;23.60;28.70
12060;DHT22;6091;51.432;6.880;2022-12-15T15:34:46;23.60;28.70
12060;DHT22;6091;51.432;6.880;2022-12-15T15:39:53;23.50;28.70
12060;DHT22;6091;51.432;6.880;2022-12-15T15:42:20;23.50;28.70
12060;DHT22;6091;51.432;6.880;2022-12-15T15:44:54;23.50;28.70
12060;DHT22;6091;51.432;6.880;2022-12-15T15:47:23;23.50;28.80
12060;DHT22;6091;51.432;6.880;2022-12-15T15:49:57;23.40;28.70
12060;DHT22;6091;51.432;6.880;2022-12-15T15:52:27;23.40;28.80
12060;DHT22;6091;51.432;6.880;2022-12-15T15:54:57;23.40;28.80
12060;DHT22;6091;51.432;6.880;2022-12-15T15:57:25;23.40;28.80
12060;DHT22;6091;51.432;6.880;2022-12-15T15:59:52;23.30;29.10
12060;DHT22;6091;51.432;6.880;2022-12-15T16:02:20;23.20;28.90
12060;DHT22;6091;51.432;6.880;2022-12-15T16:04:48;23.30;29.00
12060;DHT22;6091;51.432;6.880;2022-12-15T16:07:23;23.20;28.90
12060;DHT22;6091;51.432;6.880;2022-12-15T16:09:53;23.30;28.90
12060;DHT22;6091;51.432;6.880;2022-12-15T16:12:44;23.20;29.10
12060;DHT22;6091;51.432;6.880;2022-12-15T16:15:25;23.10;29.10
12060;DHT22;6091;51.432;6.880;2022-12-15T16:17:53;23.20;29.20
12060;DHT22;6091;51.432;6.880;2022-12-15T16:20:22;23.10;29.30
12060;DHT22;6091;51.432;6.880;2022-12-15T16:23:01;23.10;29.30
12060;DHT22;6091;51.432;6.880;2022-12-15T16:25:44;23.10;29.10
12060;DHT22;6091;51.432;6.880;2022-12-15T16:28:19;23.10;29.10
12060;DHT22;6091;51.432;6.880;2022-12-15T16:30:47;23.20;29.10
12060;DHT22;6091;51.432;6.880;2022-12-15T16:33:16;23.10;28.90
12060;DHT22;6091;51.432;6.880;2022-12-15T16:35:45;23.10;29.00
12060;DHT22;6091;51.432;6.880;2022-12-15T16:38:29;23.10;29.00
12060;DHT22;6091;51.432;6.880;2022-12-15T16:41:04;23.10;29.00
12060;DHT22;6091;51.432;6.880;2022-12-15T16:43:33;23.10;29.00
12060;DHT22;6091;51.432;6.880;2022-12-15T16:46:06;23.00;28.90
12060;DHT22;6091;51.432;6.880;2022-12-15T16:48:33;23.00;29.00
12060;DHT22;6091;51.432;6.880;2022-12-15T16:51:06;22.90;29.30
12060;DHT22;6091;51.432;6.880;2022-12-15T16:53:37;22.90;29.30
12060;DHT22;6091;51.432;6.880;2022-12-15T16:56:07;22.90;29.30
12060;DHT22;6091;51.432;6.880;2022-12-15T16:58:41;22.90;29.10
12060;DHT22;6091;51.432;6.880;2022-12-15T17:01:14;22.90;29.10
12060;DHT22;6091;51.432;6.880;2022-12-15T17:03:41;22.90;29.00
12060;DHT22;6091;51.432;6.880;2022-12-15T17:06:11;22.80;28.90
12060;DHT22;6091;51.432;6.880;2022-12-15T17:08:50;22.80;28.90
12060;DHT22;6091;51.432;6.880;2022-12-15T17:11:22;22.80;28.90
12060;DHT22;6091;51.432;6.880;2022-12-15T17:13:54;22.80;28.90
12060;DHT22;6091;51.432;6.880;2022-12-15T17:16:24;22.70;29.30
12060;DHT22;6091;51.432;6.880;2022-12-15T17:18:52;22.70;28.80
12060;DHT22;6091;51.432;6.880;2022-12-15T17:21:25;22.60;28.80
12060;DHT22;6091;51.432;6.880;2022-12-15T17:23:57;22.60;28.80
12060;DHT22;6091;51.432;6.880;2022-12-15T17:26:31;22.50;28.80
12060;DHT22;6091;51.432;6.880;2022-12-15T17:29:20;22.50;28.80
12060;DHT22;6091;51.432;6.880;2022-12-15T17:31:51;22.50;28.90
12060;DHT22;6091;51.432;6.880;2022-12-15T17:34:27;22.40;28.80
12060;DHT22;6091;51.432;6.880;2022-12-15T17:36:58;22.40;28.80
12060;DHT22;6091;51.432;6.880;2022-12-15T17:39:28;22.30;28.70
12060;DHT22;6091;51.432;6.880;2022-12-15T17:41:56;22.30;28.80
12060;DHT22;6091;51.432;6.880;2022-12-15T17:44:29;22.20;28.70
12060;DHT22;6091;51.432;6.880;2022-12-15T17:47:04;22.20;28.80
12060;DHT22;6091;51.432;6.880;2022-12-15T17:49:33;22.10;28.70
12060;DHT22;6091;51.432;6.880;2022-12-15T17:52:26;22.00;28.70
12060;DHT22;6091;51.432;6.880;2022-12-15T17:54:55;22.00;28.80
12060;DHT22;6091;51.432;6.880;2022-12-15T17:57:23;21.90;28.70
12060;DHT22;6091;51.432;6.880;2022-12-15T17:59:51;21.90;28.70
12060;DHT22;6091;51.432;6.880;2022-12-15T18:02:18;21.80;28.70
12060;DHT22;6091;51.432;6.880;2022-12-15T18:04:45;21.80;28.70
12060;DHT22;6091;51.432;6.880;2022-12-15T18:07:17;21.70;28.70
12060;DHT22;6091;51.432;6.880;2022-12-15T18:09:47;21.60;28.80
12060;DHT22;6091;51.432;6.880;2022-12-15T18:12:24;21.60;28.70
12060;DHT22;6091;51.432;6.880;2022-12-15T18:14:53;21.50;28.80
12060;DHT22;6091;51.432;6.880;2022-12-15T18:17:21;21.50;28.80
12060;DHT22;6091;51.432;6.880;2022-12-15T18:19:49;21.40;28.70
12060;DHT22;6091;51.432;6.880;2022-12-15T18:22:19;21.40;28.80
12060;DHT22;6091;51.432;6.880;2022-12-15T18:24:50;21.30;28.80
12060;DHT22;6091;51.432;6.880;2022-12-15T18:27:28;21.30;28.80
12060;DHT22;6091;51.432;6.880;2022-12-15T18:29:56;21.20;28.90
12060;DHT22;6091;51.432;6.880;2022-12-15T18:32:25;21.20;28.80
12060;DHT22;6091;51.432;6.880;2022-12-15T18:34:55;21.20;28.90
12060;DHT22;6091;51.432;6.880;2022-12-15T18:37:23;21.10;28.80
12060;DHT22;6091;51.432;6.880;2022-12-15T18:39:51;21.10;28.90